Time;durP1;ratioP1;P1;durP2;ratioP2;P2;SDS_P1;SDS_P2;PMS_P1;PMS_P2;Temp;Humidity;BMP_temperature;BMP_pressure;BME280_temperature;BME280_humidity;BME280_pressure;Samples;Min_cycle;Max_cycle;Signal;HPM_P1;HPM_P2
2022/05/23 00:00:51;;;;;;;6.00;1.70;;;13.30;99.90;;;;;;4977788;28;20051;-70
2022/05/23 00:03:18;;;;;;;6.28;1.80;;;13.20;99.90;;;;;;4967511;28;20054;-70
2022/05/23 00:05:44;;;;;;;10.48;3.72;;;13.20;99.90;;;;;;4970213;28;20121;-70
2022/05/23 00:08:10;;;;;;;6.65;2.08;;;13.10;99.90;;;;;;4967231;28;20137;-70
2022/05/23 00:10:37;;;;;;;6.25;1.60;;;13.10;99.90;;;;;;4956630;28;20074;-69
2022/05/23 00:13:02;;;;;;;6.63;1.98;;;13.00;99.90;;;;;;4977779;28;20058;-70
2022/05/23 00:15:28;;;;;;;8.57;2.00;;;13.00;99.90;;;;;;4972644;28;20454;-70
2022/05/23 00:17:55;;;;;;;7.82;1.90;;;12.90;99.90;;;;;;4990795;28;20112;-70
2022/05/23 00:20:23;;;;;;;5.72;1.80;;;12.90;99.90;;;;;;4976455;28;20082;-70
2022/05/23 00:22:49;;;;;;;6.30;2.03;;;12.90;99.90;;;;;;4971645;28;20459;-70
2022/05/23 00:25:15;;;;;;;6.65;1.98;;;12.80;99.90;;;;;;4971225;28;20039;-70
2022/05/23 00:27:43;;;;;;;9.57;2.25;;;12.80;99.90;;;;;;5002050;28;20109;-70
2022/05/23 00:30:13;;;;;;;8.13;1.90;;;12.90;99.90;;;;;;4988672;28;20145;-70
2022/05/23 00:35:23;;;;;;;5.93;2.17;;;12.60;99.90;;;;;;4974794;28;20054;-70
2022/05/23 00:37:50;;;;;;;7.00;2.40;;;12.60;99.90;;;;;;4970624;28;20100;-70
2022/05/23 00:40:35;;;;;;;7.43;2.13;;;12.60;99.90;;;;;;5006661;28;20054;-70
2022/05/23 00:43:13;;;;;;;5.47;1.80;;;12.50;99.90;;;;;;5001526;28;20109;-69
2022/05/23 00:45:50;;;;;;;6.35;2.22;;;12.50;99.90;;;;;;5004877;28;20041;-69
2022/05/23 00:48:19;;;;;;;6.47;2.50;;;12.50;99.90;;;;;;5000274;28;20035;-69
2022/05/23 00:50:50;;;;;;;7.50;2.25;;;12.40;99.90;;;;;;4980833;28;20152;-69
2022/05/23 00:53:21;;;;;;;5.68;2.00;;;12.40;99.90;;;;;;4973910;28;20039;-69
2022/05/23 00:55:48;;;;;;;8.75;2.15;;;12.30;99.90;;;;;;4970358;28;20053;-69
2022/05/23 00:58:22;;;;;;;5.03;1.70;;;12.30;99.90;;;;;;4974335;28;20504;-69
2022/05/23 01:00:49;;;;;;;7.18;1.63;;;12.30;99.90;;;;;;4987154;28;20045;-69
2022/05/23 01:03:18;;;;;;;4.80;1.85;;;12.30;99.90;;;;;;4979629;28;20065;-69
2022/05/23 01:05:45;;;;;;;5.32;1.98;;;12.30;99.90;;;;;;4983887;28;20096;-70
2022/05/23 01:08:15;;;;;;;5.75;2.10;;;12.20;99.90;;;;;;5001618;28;20051;-69
2022/05/23 01:10:42;;;;;;;9.55;2.50;;;12.10;99.90;;;;;;4970859;28;20108;-69
2022/05/23 01:13:08;;;;;;;6.13;1.92;;;12.10;99.90;;;;;;4971093;28;20046;-69
2022/05/23 01:15:34;;;;;;;6.45;1.90;;;12.10;99.90;;;;;;4973789;28;20046;-70
2022/05/23 01:18:01;;;;;;;8.95;2.78;;;12.00;99.90;;;;;;4979637;28;20057;-70
2022/05/23 01:20:29;;;;;;;9.23;2.42;;;12.00;99.90;;;;;;4997658;28;20058;-69
2022/05/23 01:23:25;;;;;;;5.75;2.35;;;12.00;99.90;;;;;;4973706;28;20042;-69
2022/05/23 01:25:51;;;;;;;7.22;2.42;;;12.00;99.90;;;;;;4972579;28;20138;-69
2022/05/23 01:28:17;;;;;;;7.60;2.20;;;11.90;99.90;;;;;;5002633;28;20049;-70
2022/05/23 01:30:43;;;;;;;7.35;2.50;;;11.90;99.90;;;;;;4979389;28;20109;-69
2022/05/23 01:33:10;;;;;;;6.72;2.30;;;11.90;99.90;;;;;;4973003;28;20048;-69
2022/05/23 01:35:37;;;;;;;4.72;2.05;;;11.80;99.90;;;;;;4977491;28;20042;-69
2022/05/23 01:38:03;;;;;;;6.63;2.20;;;11.90;99.90;;;;;;4986605;28;20134;-69
2022/05/23 01:40:30;;;;;;;6.38;2.20;;;11.80;99.90;;;;;;4976305;28;20133;-70
2022/05/23 01:42:56;;;;;;;6.80;2.42;;;11.80;99.90;;;;;;4979168;28;20073;-69
2022/05/23 01:45:26;;;;;;;6.88;2.22;;;11.80;99.90;;;;;;5007000;28;20047;-69
2022/05/23 01:47:53;;;;;;;6.28;2.15;;;11.80;99.90;;;;;;4982619;28;20053;-70
2022/05/23 01:50:20;;;;;;;8.13;2.70;;;11.90;99.90;;;;;;4999679;28;20046;-70
2022/05/23 01:52:46;;;;;;;6.32;2.40;;;11.90;99.90;;;;;;4976735;28;20042;-69
2022/05/23 01:55:12;;;;;;;7.10;2.05;;;11.90;99.90;;;;;;4975481;28;20061;-70
2022/05/23 01:57:38;;;;;;;6.43;2.13;;;12.00;99.90;;;;;;4975911;28;20042;-70
2022/05/23 02:02:50;;;;;;;4.75;2.20;;;12.00;99.90;;;;;;4974685;28;20042;-70
2022/05/23 02:05:16;;;;;;;5.65;2.30;;;12.00;99.90;;;;;;4973899;28;20058;-70
2022/05/23 02:07:42;;;;;;;7.13;3.13;;;12.00;99.90;;;;;;4977087;28;20510;-69
2022/05/23 02:10:09;;;;;;;7.78;2.45;;;12.00;99.90;;;;;;4978137;28;20046;-69
2022/05/23 02:12:36;;;;;;;5.45;2.10;;;12.00;99.90;;;;;;4971850;28;20050;-70
2022/05/23 02:15:02;;;;;;;4.60;2.10;;;12.10;99.90;;;;;;4961195;28;20077;-70
2022/05/23 02:17:27;;;;;;;5.43;2.15;;;12.10;99.90;;;;;;5005693;28;20620;-70
2022/05/23 02:19:53;;;;;;;7.93;2.80;;;12.10;99.90;;;;;;5005429;28;20089;-70
2022/05/23 02:22:19;;;;;;;6.80;2.47;;;12.10;99.90;;;;;;4972156;28;20484;-69
2022/05/23 02:24:44;;;;;;;6.32;2.15;;;12.10;99.90;;;;;;4957561;28;20043;-69
2022/05/23 02:27:10;;;;;;;8.10;2.67;;;12.10;99.90;;;;;;4973468;28;20049;-69
2022/05/23 02:29:36;;;;;;;5.20;2.50;;;12.10;99.90;;;;;;4974174;28;20046;-69
2022/05/23 02:32:03;;;;;;;7.22;2.75;;;12.30;99.90;;;;;;4973717;28;20406;-69
2022/05/23 02:34:29;;;;;;;10.40;2.90;;;12.10;99.90;;;;;;4978110;28;20535;-69
2022/05/23 02:36:54;;;;;;;6.85;2.90;;;12.20;99.90;;;;;;4974487;28;20133;-69
2022/05/23 02:39:21;;;;;;;8.48;2.95;;;12.20;99.90;;;;;;5005246;28;20389;-69
2022/05/23 02:41:47;;;;;;;7.50;3.47;;;12.20;99.90;;;;;;4957092;28;20904;-69
2022/05/23 02:44:12;;;;;;;10.43;3.35;;;12.10;99.90;;;;;;4973492;28;20054;-69
2022/05/23 02:46:38;;;;;;;10.43;3.53;;;12.10;99.90;;;;;;4972425;28;20038;-69
2022/05/23 02:49:08;;;;;;;7.97;3.05;;;12.30;99.90;;;;;;5008604;28;20038;-69
2022/05/23 02:51:34;;;;;;;6.38;3.17;;;12.20;99.90;;;;;;5010813;28;20038;-69
2022/05/23 02:53:59;;;;;;;10.50;3.55;;;12.10;99.90;;;;;;4975724;28;20042;-69
2022/05/23 02:56:25;;;;;;;8.68;3.50;;;12.00;99.90;;;;;;4976687;28;20184;-69
2022/05/23 02:58:51;;;;;;;8.43;3.03;;;12.00;99.90;;;;;;4975086;28;20046;-69
2022/05/23 03:01:17;;;;;;;8.60;3.60;;;12.00;99.90;;;;;;4973520;28;20057;-69
2022/05/23 03:03:43;;;;;;;8.70;3.65;;;11.90;99.90;;;;;;4974009;28;20428;-69
2022/05/23 03:06:08;;;;;;;7.18;3.17;;;11.90;99.90;;;;;;4978791;28;20046;-69
2022/05/23 03:08:35;;;;;;;7.47;3.00;;;11.80;99.90;;;;;;4973198;28;20039;-69
2022/05/23 03:11:04;;;;;;;7.68;3.17;;;11.80;99.90;;;;;;4975843;28;20043;-70
2022/05/23 03:13:30;;;;;;;9.20;3.88;;;11.80;99.90;;;;;;4978750;28;20050;-69
2022/05/23 03:15:56;;;;;;;9.45;3.30;;;11.70;99.90;;;;;;5004653;28;20053;-70
2022/05/23 03:18:24;;;;;;;9.35;2.97;;;11.70;99.90;;;;;;4955557;28;20456;-70
2022/05/23 03:21:00;;;;;;;9.95;3.28;;;11.60;99.90;;;;;;4977627;28;20042;-69
2022/05/23 03:29:00;;;;;;;8.82;3.60;;;11.50;99.90;;;;;;4982788;28;20057;-70
2022/05/23 03:31:27;;;;;;;7.13;3.45;;;11.50;99.90;;;;;;4985520;28;20063;-70
2022/05/23 03:33:53;;;;;;;9.68;3.63;;;11.40;99.90;;;;;;4975473;28;20101;-69
2022/05/23 03:36:20;;;;;;;7.82;3.38;;;11.40;99.90;;;;;;4996979;28;20050;-69
2022/05/23 03:38:45;;;;;;;9.23;3.40;;;11.40;99.90;;;;;;4974899;28;20168;-69
2022/05/23 03:41:11;;;;;;;7.22;3.17;;;11.50;99.90;;;;;;5007362;28;20552;-69
2022/05/23 03:43:37;;;;;;;9.13;3.00;;;11.40;99.90;;;;;;4993683;28;20047;-69
2022/05/23 03:46:05;;;;;;;7.63;3.42;;;11.50;99.90;;;;;;5005644;28;20047;-70
2022/05/23 03:48:31;;;;;;;11.88;4.68;;;11.50;99.90;;;;;;4972565;28;20054;-69
2022/05/23 03:50:56;;;;;;;10.05;3.50;;;11.50;99.90;;;;;;5007883;28;20049;-69
2022/05/23 03:53:22;;;;;;;7.95;3.65;;;11.50;99.90;;;;;;5007159;28;20419;-70
2022/05/23 03:55:50;;;;;;;8.35;3.70;;;11.60;99.90;;;;;;4966119;28;20430;-70
2022/05/23 03:58:16;;;;;;;7.80;3.63;;;11.60;99.90;;;;;;4974428;28;20117;-69
2022/05/23 04:00:46;;;;;;;9.32;3.45;;;11.70;99.90;;;;;;4972362;28;20097;-70
2022/05/23 04:03:12;;;;;;;8.77;3.35;;;11.70;99.90;;;;;;5003427;28;20133;-70
2022/05/23 04:05:41;;;;;;;6.88;3.08;;;11.70;99.90;;;;;;4973420;28;20208;-70
2022/05/23 04:08:06;;;;;;;7.88;3.72;;;11.80;99.90;;;;;;4983842;28;20038;-71
2022/05/23 04:10:32;;;;;;;8.43;3.45;;;11.80;99.90;;;;;;4976167;28;20496;-70
2022/05/23 04:12:58;;;;;;;6.97;3.35;;;11.80;99.90;;;;;;5006978;28;20053;-69
2022/05/23 04:15:24;;;;;;;9.70;3.45;;;11.80;99.90;;;;;;4978141;28;20049;-70
2022/05/23 04:17:49;;;;;;;9.13;3.78;;;11.80;99.90;;;;;;4973243;28;20089;-70
2022/05/23 04:20:15;;;;;;;9.70;3.58;;;11.80;99.90;;;;;;4990455;28;20074;-69
2022/05/23 04:22:41;;;;;;;10.35;4.63;;;11.90;99.90;;;;;;4980340;28;20038;-69
2022/05/23 04:25:07;;;;;;;5.25;3.10;;;11.90;99.90;;;;;;5012494;28;20058;-69
2022/05/23 04:27:33;;;;;;;6.05;3.15;;;11.90;99.90;;;;;;4977259;28;20121;-69
2022/05/23 04:29:59;;;;;;;8.32;3.60;;;12.00;99.90;;;;;;4964015;28;20081;-69
2022/05/23 04:35:15;;;;;;;8.73;4.40;;;12.20;99.90;;;;;;4976132;28;20453;-70
2022/05/23 04:37:48;;;;;;;7.43;3.65;;;12.20;99.90;;;;;;4975777;28;20050;-69
2022/05/23 04:40:17;;;;;;;8.27;3.75;;;12.50;99.90;;;;;;4970152;28;20054;-70
2022/05/23 04:42:42;;;;;;;8.63;3.60;;;13.00;99.90;;;;;;4972988;28;20058;-69
2022/05/23 04:45:09;;;;;;;7.30;3.88;;;13.30;99.90;;;;;;4971241;28;20488;-69
2022/05/23 04:50:22;;;;;;;7.88;3.60;;;14.70;99.90;;;;;;4973889;28;20066;-70
2022/05/23 04:52:48;;;;;;;7.45;3.28;;;15.30;99.90;;;;;;4978069;28;20066;-69
2022/05/23 04:55:15;;;;;;;7.55;3.13;;;16.00;99.90;;;;;;4959255;28;20491;-69
2022/05/23 04:57:40;;;;;;;6.55;3.22;;;16.70;99.90;;;;;;4978128;28;20061;-70
2022/05/23 05:00:09;;;;;;;7.13;2.97;;;17.30;99.90;;;;;;4977532;28;20049;-69
2022/05/23 05:02:36;;;;;;;7.40;3.15;;;18.20;99.90;;;;;;4985689;28;21753;-69
2022/05/23 05:05:02;;;;;;;10.15;3.60;;;18.80;99.90;;;;;;4976593;28;20092;-70
2022/05/23 05:07:28;;;;;;;6.82;2.90;;;19.30;99.90;;;;;;5004325;28;20038;-69
2022/05/23 05:09:54;;;;;;;9.77;3.28;;;19.50;99.90;;;;;;4999854;28;20042;-69
2022/05/23 05:12:20;;;;;;;7.25;2.75;;;19.70;99.90;;;;;;4998439;28;20045;-69
2022/05/23 05:14:46;;;;;;;7.07;2.83;;;19.60;99.90;;;;;;4991957;28;20149;-69
2022/05/23 05:17:12;;;;;;;5.80;3.00;;;19.30;99.90;;;;;;5001990;28;20130;-69
2022/05/23 05:19:38;;;;;;;9.80;3.20;;;18.80;99.90;;;;;;4992659;28;20041;-69
2022/05/23 05:22:03;;;;;;;9.82;3.38;;;18.30;99.90;;;;;;5015136;28;20046;-69
2022/05/23 05:24:32;;;;;;;7.97;3.15;;;17.60;99.90;;;;;;4988001;28;20042;-69
2022/05/23 05:27:01;;;;;;;7.22;2.70;;;17.10;99.90;;;;;;4997832;28;20050;-70
2022/05/23 05:29:28;;;;;;;5.97;2.92;;;16.60;99.90;;;;;;4988748;28;20042;-70
2022/05/23 05:32:01;;;;;;;8.05;3.10;;;16.30;99.90;;;;;;4991167;28;20117;-69
2022/05/23 05:34:46;;;;;;;7.07;3.53;;;15.90;99.90;;;;;;4999889;28;20126;-69
2022/05/23 05:37:24;;;;;;;7.90;3.55;;;15.70;99.90;;;;;;4964442;28;20546;-70
2022/05/23 05:39:52;;;;;;;9.48;3.38;;;15.40;99.90;;;;;;4993166;28;20092;-70
2022/05/23 05:42:26;;;;;;;8.63;3.75;;;15.30;99.90;;;;;;5013944;28;20129;-70
2022/05/23 05:45:22;;;;;;;9.88;3.50;;;15.20;99.90;;;;;;4985215;28;20130;-69
2022/05/23 05:47:50;;;;;;;7.82;3.45;;;15.00;99.90;;;;;;4986936;28;20089;-70
2022/05/23 05:50:30;;;;;;;7.13;3.25;;;15.00;99.90;;;;;;5016921;28;20040;-70
2022/05/23 05:53:00;;;;;;;9.90;4.30;;;14.90;99.90;;;;;;4976405;28;20051;-70
2022/05/23 05:55:26;;;;;;;9.27;3.63;;;14.90;99.90;;;;;;5000289;28;20054;-69
2022/05/23 05:57:52;;;;;;;8.10;3.80;;;15.00;99.90;;;;;;4976272;28;20529;-70
2022/05/23 06:00:18;;;;;;;9.63;3.85;;;14.90;99.90;;;;;;4975614;28;20062;-70
2022/05/23 06:02:44;;;;;;;8.65;3.50;;;14.90;99.90;;;;;;5004090;28;20182;-70
2022/05/23 06:05:10;;;;;;;8.45;3.60;;;14.90;99.90;;;;;;5009088;28;20425;-69
2022/05/23 06:12:58;;;;;;;9.48;4.25;;;14.90;99.90;;;;;;4999107;28;20108;-70
2022/05/23 06:15:24;;;;;;;9.70;3.85;;;14.90;99.90;;;;;;4995601;28;20051;-69
2022/05/23 06:17:52;;;;;;;8.25;3.80;;;14.90;99.90;;;;;;5019644;28;20050;-70
2022/05/23 06:20:19;;;;;;;9.95;4.25;;;14.90;99.90;;;;;;4994387;28;20126;-69
2022/05/23 06:22:45;;;;;;;11.25;4.35;;;15.00;99.90;;;;;;4988681;28;20038;-69
2022/05/23 06:25:12;;;;;;;10.88;4.18;;;15.00;99.90;;;;;;4998710;28;20096;-70
2022/05/23 06:27:39;;;;;;;12.15;4.40;;;15.10;99.90;;;;;;4997221;28;20038;-69
2022/05/23 06:30:07;;;;;;;10.95;4.00;;;15.20;99.90;;;;;;4994573;28;20046;-70
2022/05/23 06:32:33;;;;;;;7.40;4.13;;;15.40;99.90;;;;;;4987508;28;20462;-69
2022/05/23 06:34:59;;;;;;;9.63;4.28;;;15.90;99.90;;;;;;4978154;28;20080;-70
2022/05/23 06:37:25;;;;;;;10.65;4.40;;;15.70;99.90;;;;;;5002863;28;20314;-68
2022/05/23 06:39:51;;;;;;;9.70;4.07;;;15.70;99.90;;;;;;4977736;28;20457;-70
2022/05/23 06:42:17;;;;;;;9.90;4.35;;;15.70;99.90;;;;;;5006972;28;20046;-70
2022/05/23 06:44:42;;;;;;;8.85;4.45;;;15.70;99.90;;;;;;4998252;28;20050;-70
2022/05/23 06:47:08;;;;;;;9.10;4.30;;;15.70;99.90;;;;;;5023686;28;20044;-69
2022/05/23 06:49:34;;;;;;;8.75;4.30;;;15.90;99.90;;;;;;4998240;28;20041;-70
2022/05/23 06:51:59;;;;;;;8.82;4.15;;;15.90;99.90;;;;;;5017083;28;20407;-69
2022/05/23 06:54:25;;;;;;;9.95;4.40;;;16.00;99.90;;;;;;5015504;28;20919;-69
2022/05/23 06:56:51;;;;;;;7.75;4.32;;;16.00;99.90;;;;;;4996930;28;20060;-69
2022/05/23 06:59:18;;;;;;;9.80;4.43;;;16.10;99.90;;;;;;5017881;28;20721;-70
2022/05/23 07:01:46;;;;;;;11.48;4.55;;;16.20;99.90;;;;;;5018661;28;20077;-69
2022/05/23 07:04:12;;;;;;;8.93;4.38;;;16.20;99.90;;;;;;4997479;28;20407;-70
2022/05/23 07:12:20;;;;;;;11.23;4.45;;;16.60;99.90;;;;;;4988193;28;20062;-69
2022/05/23 07:14:47;;;;;;;9.73;4.30;;;16.80;99.90;;;;;;4996353;28;20069;-70
2022/05/23 07:17:14;;;;;;;8.82;4.45;;;17.00;99.90;;;;;;4991087;28;20069;-70
2022/05/23 07:19:40;;;;;;;10.07;4.55;;;17.10;99.90;;;;;;4987905;28;20116;-69
2022/05/23 07:22:08;;;;;;;9.57;4.32;;;17.20;99.90;;;;;;4996085;28;20029;-70
2022/05/23 07:24:34;;;;;;;8.80;4.53;;;17.50;99.90;;;;;;4990129;28;20427;-69
2022/05/23 07:27:01;;;;;;;8.48;4.28;;;17.70;99.90;;;;;;5015783;28;20045;-69
2022/05/23 07:29:27;;;;;;;10.20;4.20;;;18.30;99.90;;;;;;5016190;28;20058;-69
2022/05/23 07:31:54;;;;;;;9.25;4.28;;;18.70;99.90;;;;;;5000536;28;20467;-69
2022/05/23 07:34:20;;;;;;;10.52;4.05;;;18.80;99.90;;;;;;4988731;28;20125;-70
2022/05/23 07:36:48;;;;;;;7.50;3.63;;;18.70;99.90;;;;;;5012385;28;20268;-69
2022/05/23 07:39:14;;;;;;;9.20;3.63;;;18.60;99.90;;;;;;5008755;28;20072;-69
2022/05/23 07:41:41;;;;;;;10.23;4.47;;;18.60;99.90;;;;;;4993219;28;20065;-69
2022/05/23 07:44:08;;;;;;;8.35;3.85;;;18.80;99.90;;;;;;4974294;28;20132;-69
2022/05/23 07:46:34;;;;;;;7.97;4.15;;;18.80;99.90;;;;;;4985989;28;20121;-69
2022/05/23 07:49:00;;;;;;;11.10;4.55;;;19.00;99.90;;;;;;5016679;28;20061;-69
2022/05/23 07:51:30;;;;;;;9.50;4.53;;;19.20;99.90;;;;;;5009214;28;20446;-71
2022/05/23 08:02:11;;;;;;;7.13;3.97;;;20.10;99.90;;;;;;4984443;28;20053;-69
2022/05/23 08:04:38;;;;;;;9.70;4.15;;;20.10;99.90;;;;;;4993175;28;20827;-69
2022/05/23 08:07:06;;;;;;;11.73;4.22;;;20.10;99.90;;;;;;5019247;28;20529;-70
2022/05/23 08:09:31;;;;;;;8.82;4.72;;;20.10;99.90;;;;;;5018414;28;20570;-70
2022/05/23 08:11:58;;;;;;;9.95;4.15;;;20.20;99.90;;;;;;5010743;28;20112;-69
2022/05/23 08:14:24;;;;;;;11.50;4.35;;;20.40;99.90;;;;;;5000874;28;20073;-69
2022/05/23 08:16:51;;;;;;;10.88;4.10;;;20.50;99.90;;;;;;4991190;28;20678;-70
2022/05/23 08:19:17;;;;;;;10.48;4.50;;;20.50;99.90;;;;;;4984551;28;20424;-69
2022/05/23 08:21:48;;;;;;;7.53;4.20;;;20.70;99.90;;;;;;4985057;28;20091;-69
2022/05/23 08:24:14;;;;;;;;;;;21.00;99.90;;;;;;4990878;28;20050;-70
2022/05/23 08:26:40;;;;;;;7.53;3.90;;;21.40;99.90;;;;;;4986521;28;20322;-69
2022/05/23 08:29:06;;;;;;;9.80;3.95;;;21.80;99.90;;;;;;5017729;28;20107;-69
2022/05/23 08:31:32;;;;;;;10.50;4.28;;;22.00;99.90;;;;;;4985843;28;20709;-69
2022/05/23 08:33:58;;;;;;;8.00;3.55;;;22.20;99.90;;;;;;5001626;28;20046;-69
2022/05/23 08:36:23;;;;;;;8.35;3.72;;;22.50;99.90;;;;;;5022315;28;20520;-69
2022/05/23 08:38:49;;;;;;;9.57;3.88;;;22.80;99.90;;;;;;5021914;28;20606;-70
2022/05/23 08:41:15;;;;;;;8.93;3.72;;;22.90;99.90;;;;;;4968791;28;21629;-68
2022/05/23 08:44:05;;;;;;;9.73;4.45;;;23.10;99.90;;;;;;5022045;28;20821;-69
2022/05/23 08:46:59;;;;;;;6.95;3.22;;;23.20;99.90;;;;;;4986772;28;20053;-70
2022/05/23 08:49:44;;;;;;;8.77;3.95;;;23.40;99.90;;;;;;5027661;28;20056;-68
2022/05/23 08:52:24;;;;;;;9.43;4.10;;;23.20;99.90;;;;;;5003330;28;20128;-69
2022/05/23 08:55:28;;;;;;;10.25;4.90;;;23.00;99.90;;;;;;4995467;28;20042;-69
2022/05/23 08:58:08;;;;;;;8.88;3.92;;;22.80;99.90;;;;;;5024180;28;20092;-69
2022/05/23 09:00:54;;;;;;;8.55;4.20;;;22.60;99.90;;;;;;4996143;28;20421;-69
2022/05/23 09:03:25;;;;;;;15.70;4.93;;;22.70;99.90;;;;;;5026135;28;20260;-69
2022/05/23 09:05:57;;;;;;;9.52;3.88;;;22.90;99.90;;;;;;5022171;28;20056;-69
2022/05/23 09:08:27;;;;;;;9.77;4.75;;;23.10;99.90;;;;;;5018630;28;20055;-69
2022/05/23 09:11:01;;;;;;;10.15;4.50;;;23.50;99.90;;;;;;4996391;28;20062;-69
2022/05/23 09:13:30;;;;;;;8.93;4.10;;;23.60;99.90;;;;;;5021536;28;20125;-69
2022/05/23 09:16:04;;;;;;;10.38;4.95;;;23.80;99.90;;;;;;5001106;28;20054;-69
2022/05/23 09:18:40;;;;;;;12.45;4.13;;;23.90;99.90;;;;;;5001184;28;20550;-69
2022/05/23 09:21:09;;;;;;;7.70;4.20;;;24.00;99.90;;;;;;4993845;28;20042;-70
2022/05/23 09:23:47;;;;;;;9.40;4.57;;;24.10;99.90;;;;;;5012601;28;20050;-70
2022/05/23 09:26:29;;;;;;;11.02;4.93;;;24.20;99.90;;;;;;5018246;28;20057;-69
2022/05/23 09:28:55;;;;;;;9.85;4.05;;;24.30;99.90;;;;;;5003591;28;20100;-70
2022/05/23 09:31:30;;;;;;;8.55;4.55;;;24.50;99.90;;;;;;5018047;28;20088;-70
2022/05/23 09:33:56;;;;;;;10.40;4.65;;;24.80;99.90;;;;;;4996775;28;20121;-70
2022/05/23 09:36:36;;;;;;;9.70;4.20;;;25.10;99.90;;;;;;5028328;28;20463;-70
2022/05/23 09:39:08;;;;;;;10.43;4.97;;;25.20;99.90;;;;;;4999669;28;20050;-70
2022/05/23 09:50:07;;;;;;;8.55;4.18;;;24.70;99.90;;;;;;4990137;28;20058;-70
2022/05/23 09:52:56;;;;;;;10.32;4.65;;;24.50;99.90;;;;;;4968070;28;20042;-70
2022/05/23 09:55:31;;;;;;;8.25;3.60;;;24.30;99.90;;;;;;5011527;28;20133;-69
2022/05/23 09:58:08;;;;;;;7.57;3.70;;;24.20;99.90;;;;;;4984788;28;20407;-69
2022/05/23 10:00:37;;;;;;;8.55;4.05;;;24.10;99.90;;;;;;4986003;28;20038;-69
2022/05/23 10:03:06;;;;;;;7.70;3.20;;;24.00;99.90;;;;;;4986740;28;20042;-69
2022/05/23 10:05:39;;;;;;;10.05;3.53;;;23.80;99.90;;;;;;4988042;28;20130;-69
2022/05/23 10:08:35;;;;;;;8.88;3.60;;;23.80;99.90;;;;;;4985620;28;20502;-70
2022/05/23 10:11:05;;;;;;;8.93;3.70;;;23.70;99.90;;;;;;4986401;28;20546;-70
2022/05/23 10:13:37;;;;;;;7.37;3.20;;;23.80;99.90;;;;;;4988974;28;20137;-70
2022/05/23 10:16:09;;;;;;;7.57;3.03;;;23.80;99.90;;;;;;4999105;28;20649;-70
2022/05/23 10:18:43;;;;;;;7.82;2.85;;;24.20;99.90;;;;;;4988246;28;20384;-69
2022/05/23 10:21:23;;;;;;;5.28;1.90;;;24.50;99.90;;;;;;4988622;28;20543;-69
2022/05/23 10:24:18;;;;;;;7.97;2.35;;;24.70;99.90;;;;;;4985609;28;20123;-69
2022/05/23 10:26:51;;;;;;;6.13;2.50;;;25.10;99.90;;;;;;4973490;28;20519;-69
2022/05/23 10:29:32;;;;;;;6.43;2.20;;;25.40;99.90;;;;;;4986403;28;20045;-70
2022/05/23 10:32:03;;;;;;;;;;;26.00;99.90;;;;;;4965564;28;20396;-69
2022/05/23 10:34:49;;;;;;;5.75;2.30;;;26.30;99.90;;;;;;4984628;28;20338;-68
2022/05/23 10:37:21;;;;;;;6.47;2.13;;;26.60;98.20;;;;;;4983200;28;20403;-69
2022/05/23 10:42:49;;;;;;;5.97;2.40;;;27.00;95.80;;;;;;4983714;28;20046;-70
2022/05/23 10:45:36;;;;;;;6.65;2.58;;;26.90;92.60;;;;;;4988135;28;20053;-70
2022/05/23 10:48:20;;;;;;;6.25;1.70;;;26.80;90.90;;;;;;4985730;28;20132;-69
2022/05/23 10:51:05;;;;;;;10.68;2.10;;;26.90;92.90;;;;;;4991226;28;20042;-70
2022/05/23 10:53:43;;;;;;;8.70;2.10;;;27.10;90.60;;;;;;4990304;28;20046;-70
2022/05/23 10:56:25;;;;;;;5.85;2.00;;;27.10;88.70;;;;;;4991781;28;20118;-69
2022/05/23 10:58:59;;;;;;;6.50;2.40;;;27.00;90.40;;;;;;5015232;28;20081;-69
2022/05/23 11:02:02;;;;;;;5.53;2.05;;;26.80;90.80;;;;;;4994175;28;20136;-70
2022/05/23 11:05:00;;;;;;;5.72;2.00;;;26.60;90.10;;;;;;4986885;28;20049;-71
2022/05/23 11:07:43;;;;;;;7.97;2.30;;;26.80;88.70;;;;;;4977514;28;20046;-71
2022/05/23 11:10:32;;;;;;;7.00;2.25;;;27.00;86.20;;;;;;4981219;28;20050;-70
2022/05/23 11:13:26;;;;;;;5.72;2.10;;;27.20;89.30;;;;;;4986233;28;20491;-70
2022/05/23 11:16:11;;;;;;;5.32;1.98;;;27.20;85.90;;;;;;4986246;28;20081;-71
2022/05/23 11:19:20;;;;;;;5.45;2.08;;;27.20;86.70;;;;;;4977453;28;20041;-71
2022/05/23 11:22:02;;;;;;;6.43;1.83;;;27.30;86.80;;;;;;4964961;28;20058;-71
2022/05/23 11:25:00;;;;;;;4.07;1.67;;;27.40;85.20;;;;;;4988834;28;20511;-71
2022/05/23 11:35:54;;;;;;;6.72;1.65;;;27.80;79.70;;;;;;4988060;28;20044;-70
2022/05/23 11:38:21;;;;;;;4.72;1.40;;;27.80;78.00;;;;;;4993508;28;20400;-71
2022/05/23 11:41:12;;;;;;;5.53;2.20;;;27.80;79.30;;;;;;5014336;28;20447;-70
2022/05/23 11:43:38;;;;;;;7.32;1.70;;;27.80;75.90;;;;;;4968708;28;20054;-70
2022/05/23 11:46:09;;;;;;;7.20;2.00;;;27.70;76.90;;;;;;4988336;28;20074;-70
2022/05/23 11:48:41;;;;;;;5.90;1.80;;;27.60;75.60;;;;;;4995128;28;20069;-70
2022/05/23 11:51:31;;;;;;;4.25;1.73;;;27.40;76.90;;;;;;4996651;28;20049;-69
2022/05/23 11:53:59;;;;;;;5.63;2.30;;;27.30;76.90;;;;;;4992171;28;20046;-70
2022/05/23 11:56:43;;;;;;;5.70;1.70;;;27.20;76.00;;;;;;4988066;28;20724;-70
2022/05/23 11:59:23;;;;;;;4.47;1.88;;;27.10;76.50;;;;;;5013856;28;20388;-70
2022/05/23 12:02:09;;;;;;;7.00;2.22;;;26.80;75.20;;;;;;5020610;28;20046;-70
2022/05/23 12:04:56;;;;;;;6.28;2.38;;;26.60;77.60;;;;;;4989234;28;20054;-70
2022/05/23 12:07:31;;;;;;;6.35;2.10;;;26.40;79.20;;;;;;4993270;28;20456;-70
2022/05/23 12:10:24;;;;;;;7.10;2.17;;;26.50;80.60;;;;;;5013746;28;20125;-70
2022/05/23 12:13:16;;;;;;;6.93;2.20;;;26.50;80.10;;;;;;4986757;28;20596;-73
2022/05/23 12:15:48;;;;;;;5.88;2.15;;;26.40;77.90;;;;;;4979869;28;20589;-71
2022/05/23 12:18:23;;;;;;;7.28;2.15;;;26.10;81.70;;;;;;4993112;28;20483;-72
2022/05/23 12:20:55;;;;;;;5.75;2.08;;;25.90;80.00;;;;;;4982327;28;20038;-72
2022/05/23 12:23:41;;;;;;;4.22;1.55;;;25.60;81.00;;;;;;4994297;28;20123;-72
2022/05/23 12:26:10;;;;;;;4.80;1.70;;;25.50;83.30;;;;;;4979870;28;20045;-70
2022/05/23 12:29:19;;;;;;;5.93;1.85;;;25.30;83.20;;;;;;4990486;28;20045;-70
2022/05/23 12:32:10;;;;;;;6.95;2.05;;;25.20;84.00;;;;;;5015328;28;20042;-70
2022/05/23 12:34:48;;;;;;;3.47;1.70;;;25.10;84.40;;;;;;5009428;28;20047;-70
2022/05/23 12:37:22;;;;;;;4.97;1.75;;;25.00;85.00;;;;;;4996981;28;20314;-70
2022/05/23 12:39:50;;;;;;;7.70;1.70;;;24.90;84.70;;;;;;4994767;28;20060;-70
2022/05/23 12:42:22;;;;;;;6.43;1.55;;;24.90;86.00;;;;;;4997957;28;20050;-70
2022/05/23 12:44:57;;;;;;;3.95;1.60;;;24.80;84.20;;;;;;4999384;28;20751;-70
2022/05/23 12:47:47;;;;;;;7.22;1.80;;;24.70;85.00;;;;;;4990527;28;20403;-70
2022/05/23 12:50:46;;;;;;;5.30;1.77;;;24.70;84.50;;;;;;4979032;28;20042;-70
2022/05/23 12:53:28;;;;;;;3.95;1.42;;;24.60;82.90;;;;;;4984277;28;20050;-69
2022/05/23 12:56:13;;;;;;;5.30;1.50;;;24.50;84.80;;;;;;4978392;28;20061;-70
2022/05/23 12:59:17;;;;;;;4.03;1.58;;;24.50;82.60;;;;;;5019696;28;20050;-70
2022/05/23 13:01:45;;;;;;;5.78;1.63;;;24.60;85.70;;;;;;4992956;28;20129;-70
2022/05/23 13:04:19;;;;;;;6.57;1.90;;;24.60;87.40;;;;;;4981046;28;20499;-70
2022/05/23 13:07:01;;;;;;;5.47;1.85;;;24.60;86.10;;;;;;4976625;28;20106;-69
2022/05/23 13:09:44;;;;;;;4.80;1.45;;;24.40;86.50;;;;;;4993938;28;20748;-70
2022/05/23 13:12:44;;;;;;;6.93;1.50;;;24.30;88.00;;;;;;4998810;28;20058;-71
2022/05/23 13:15:10;;;;;;;6.45;1.90;;;24.20;89.20;;;;;;5005142;28;20108;-70
2022/05/23 13:17:42;;;;;;;4.03;1.40;;;24.10;90.10;;;;;;5000859;28;20402;-71
2022/05/23 13:23:22;;;;;;;5.93;1.73;;;24.00;90.50;;;;;;4996038;28;20058;-72
2022/05/23 13:25:48;;;;;;;4.22;1.80;;;24.00;90.90;;;;;;4996796;28;20061;-73
2022/05/23 13:28:15;;;;;;;6.70;1.90;;;23.90;91.10;;;;;;4988962;28;20399;-72
2022/05/23 13:30:45;;;;;;;4.45;1.65;;;23.90;90.70;;;;;;4988997;28;20054;-72
2022/05/23 13:33:15;;;;;;;6.35;1.95;;;23.80;90.40;;;;;;4981438;28;20053;-72
2022/05/23 13:35:44;;;;;;;8.15;2.10;;;23.70;91.00;;;;;;5028659;28;20419;-72
2022/05/23 13:38:27;;;;;;;6.28;2.25;;;23.70;90.20;;;;;;5015956;28;20377;-73
2022/05/23 13:40:57;;;;;;;6.63;2.30;;;23.50;91.00;;;;;;4994530;28;20096;-72
2022/05/23 13:43:42;;;;;;;8.27;2.35;;;23.40;91.10;;;;;;5010924;28;20407;-72
2022/05/23 13:46:25;;;;;;;5.55;2.08;;;23.40;91.80;;;;;;4996216;28;20038;-72
2022/05/23 13:49:07;;;;;;;6.40;1.98;;;23.30;92.80;;;;;;4990629;28;20041;-72
2022/05/23 13:51:44;;;;;;;6.20;1.92;;;23.30;93.50;;;;;;4994896;28;20050;-73
2022/05/23 13:54:19;;;;;;;8.98;2.38;;;23.40;94.00;;;;;;4997272;28;20038;-73
2022/05/23 13:56:52;;;;;;;6.05;1.70;;;23.50;94.30;;;;;;4970703;28;20066;-73
2022/05/23 13:59:26;;;;;;;4.63;1.80;;;23.50;95.60;;;;;;5008500;28;20058;-71
2022/05/23 14:01:57;;;;;;;6.63;2.17;;;23.70;96.30;;;;;;5007701;28;20262;-72
2022/05/23 14:04:27;;;;;;;6.60;1.80;;;23.90;95.70;;;;;;4974110;28;20674;-70
2022/05/23 14:06:58;;;;;;;6.00;2.30;;;24.10;96.40;;;;;;4985855;28;20046;-72